sensor_id;sensor_type;location;lat;lon;timestamp;pressure;altitude;pressure_sealevel;temperature;humidity
30421;BME280;17218;54.070;10.012;2023-01-04T00:02:13;101729.88;;;5.16;100.00
30421;BME280;17218;54.070;10.012;2023-01-04T00:04:41;101709.38;;;5.17;100.00
30421;BME280;17218;54.070;10.012;2023-01-04T00:07:08;101716.41;;;5.23;100.00
30421;BME280;17218;54.070;10.012;2023-01-04T00:09:34;101710.59;;;5.29;100.00
30421;BME280;17218;54.070;10.012;2023-01-04T00:12:01;101705.44;;;5.29;100.00
30421;BME280;17218;54.070;10.012;2023-01-04T00:14:28;101697.78;;;5.30;100.00
30421;BME280;17218;54.070;10.012;2023-01-04T00:16:54;101684.06;;;5.30;100.00
30421;BME280;17218;54.070;10.012;2023-01-04T00:19:21;101679.09;;;5.36;100.00
30421;BME280;17218;54.070;10.012;2023-01-04T00:21:49;101675.63;;;5.34;100.00
30421;BME280;17218;54.070;10.012;2023-01-04T00:24:16;101662.72;;;5.32;100.00
30421;BME280;17218;54.070;10.012;2023-01-04T00:26:42;101661.94;;;5.35;100.00
30421;BME280;17218;54.070;10.012;2023-01-04T00:29:11;101653.31;;;5.33;100.00
30421;BME280;17218;54.070;10.012;2023-01-04T00:31:37;101654.34;;;5.38;100.00
30421;BME280;17218;54.070;10.012;2023-01-04T00:34:04;101651.09;;;5.45;100.00
30421;BME280;17218;54.070;10.012;2023-01-04T00:36:32;101646.94;;;5.49;100.00
30421;BME280;17218;54.070;10.012;2023-01-04T00:39:01;101632.31;;;5.48;100.00
30421;BME280;17218;54.070;10.012;2023-01-04T00:41:38;101634.94;;;5.49;100.00
30421;BME280;17218;54.070;10.012;2023-01-04T00:44:05;101627.22;;;5.49;100.00
30421;BME280;17218;54.070;10.012;2023-01-04T00:46:35;101634.13;;;5.51;100.00
30421;BME280;17218;54.070;10.012;2023-01-04T00:49:03;101622.91;;;5.48;100.00
30421;BME280;17218;54.070;10.012;2023-01-04T00:51:32;101597.06;;;5.44;100.00
30421;BME280;17218;54.070;10.012;2023-01-04T00:54:01;101592.06;;;5.48;100.00
30421;BME280;17218;54.070;10.012;2023-01-04T00:56:29;101579.22;;;5.48;100.00
30421;BME280;17218;54.070;10.012;2023-01-04T00:58:57;101568.22;;;5.53;100.00
30421;BME280;17218;54.070;10.012;2023-01-04T01:01:24;101568.28;;;5.56;100.00
30421;BME280;17218;54.070;10.012;2023-01-04T01:03:52;101562.31;;;5.57;100.00
30421;BME280;17218;54.070;10.012;2023-01-04T01:06:19;101559.91;;;5.63;100.00
30421;BME280;17218;54.070;10.012;2023-01-04T01:08:46;101551.41;;;5.66;100.00
30421;BME280;17218;54.070;10.012;2023-01-04T01:11:14;101531.91;;;5.74;100.00
30421;BME280;17218;54.070;10.012;2023-01-04T01:13:41;101540.56;;;5.78;100.00
30421;BME280;17218;54.070;10.012;2023-01-04T01:16:10;101538.75;;;5.73;100.00
30421;BME280;17218;54.070;10.012;2023-01-04T01:18:38;101531.16;;;5.78;100.00
30421;BME280;17218;54.070;10.012;2023-01-04T01:21:06;101529.56;;;5.83;100.00
30421;BME280;17218;54.070;10.012;2023-01-04T01:23:32;101524.50;;;5.87;100.00
30421;BME280;17218;54.070;10.012;2023-01-04T01:25:59;101510.81;;;5.88;100.00
30421;BME280;17218;54.070;10.012;2023-01-04T01:28:28;101518.50;;;5.86;100.00
30421;BME280;17218;54.070;10.012;2023-01-04T01:30:55;101496.31;;;5.90;100.00
30421;BME280;17218;54.070;10.012;2023-01-04T01:33:23;101503.91;;;5.87;100.00
30421;BME280;17218;54.070;10.012;2023-01-04T01:35:50;101497.16;;;5.90;100.00
30421;BME280;17218;54.070;10.012;2023-01-04T01:38:17;101483.44;;;5.90;100.00
30421;BME280;17218;54.070;10.012;2023-01-04T01:40:44;101486.88;;;5.90;100.00
30421;BME280;17218;54.070;10.012;2023-01-04T01:43:15;101485.91;;;5.87;100.00
30421;BME280;17218;54.070;10.012;2023-01-04T01:45:45;101492.66;;;5.81;100.00
30421;BME280;17218;54.070;10.012;2023-01-04T01:48:16;101482.53;;;5.88;100.00
30421;BME280;17218;54.070;10.012;2023-01-04T01:50:45;101479.94;;;5.86;100.00
30421;BME280;17218;54.070;10.012;2023-01-04T01:53:15;101467.06;;;5.86;100.00
30421;BME280;17218;54.070;10.012;2023-01-04T01:55:42;101447.38;;;5.88;100.00
30421;BME280;17218;54.070;10.012;2023-01-04T01:58:14;101440.66;;;5.93;100.00
30421;BME280;17218;54.070;10.012;2023-01-04T02:00:44;101440.59;;;5.92;100.00
30421;BME280;17218;54.070;10.012;2023-01-04T02:03:15;101426.97;;;5.94;100.00
30421;BME280;17218;54.070;10.012;2023-01-04T02:05:43;101419.25;;;5.94;100.00
30421;BME280;17218;54.070;10.012;2023-01-04T02:08:11;101421.84;;;5.96;100.00
30421;BME280;17218;54.070;10.012;2023-01-04T02:10:38;101403.94;;;5.99;100.00
30421;BME280;17218;54.070;10.012;2023-01-04T02:13:07;101379.97;;;6.02;100.00
30421;BME280;17218;54.070;10.012;2023-01-04T02:15:56;101386.09;;;6.05;100.00
30421;BME280;17218;54.070;10.012;2023-01-04T02:18:29;101391.22;;;6.05;100.00
30421;BME280;17218;54.070;10.012;2023-01-04T02:21:01;101376.59;;;6.04;100.00
30421;BME280;17218;54.070;10.012;2023-01-04T02:23:58;101359.56;;;6.08;100.00
30421;BME280;17218;54.070;10.012;2023-01-04T02:26:56;101351.91;;;6.11;100.00
30421;BME280;17218;54.070;10.012;2023-01-04T02:29:55;101339.81;;;6.07;100.00
30421;BME280;17218;54.070;10.012;2023-01-04T02:32:37;101341.66;;;6.13;100.00
30421;BME280;17218;54.070;10.012;2023-01-04T02:35:12;101334.03;;;6.17;100.00
30421;BME280;17218;54.070;10.012;2023-01-04T02:37:47;101326.34;;;6.19;100.00
30421;BME280;17218;54.070;10.012;2023-01-04T02:40:20;101311.72;;;6.18;100.00
30421;BME280;17218;54.070;10.012;2023-01-04T02:42:54;101300.53;;;6.16;100.00
30421;BME280;17218;54.070;10.012;2023-01-04T02:45:44;101295.47;;;6.19;100.00
30421;BME280;17218;54.070;10.012;2023-01-04T02:48:15;101290.38;;;6.22;100.00
30421;BME280;17218;54.070;10.012;2023-01-04T02:50:57;101283.50;;;6.21;100.00
30421;BME280;17218;54.070;10.012;2023-01-04T02:53:26;101277.47;;;6.19;100.00
30421;BME280;17218;54.070;10.012;2023-01-04T02:56:05;101276.63;;;6.22;100.00
30421;BME280;17218;54.070;10.012;2023-01-04T02:58:48;101265.53;;;6.23;100.00
30421;BME280;17218;54.070;10.012;2023-01-04T03:01:26;101261.28;;;6.25;100.00
30421;BME280;17218;54.070;10.012;2023-01-04T03:04:24;101250.84;;;6.17;100.00
30421;BME280;17218;54.070;10.012;2023-01-04T03:07:20;101224.13;;;6.10;100.00
30421;BME280;17218;54.070;10.012;2023-01-04T03:09:52;101211.88;;;6.00;100.00
30421;BME280;17218;54.070;10.012;2023-01-04T03:12:23;101216.00;;;5.90;100.00
30421;BME280;17218;54.070;10.012;2023-01-04T03:15:00;101198.78;;;5.87;100.00
30421;BME280;17218;54.070;10.012;2023-01-04T03:17:32;101211.50;;;5.81;100.00
30421;BME280;17218;54.070;10.012;2023-01-04T03:20:04;101206.34;;;5.79;100.00
30421;BME280;17218;54.070;10.012;2023-01-04T03:22:35;101202.09;;;5.81;100.00
30421;BME280;17218;54.070;10.012;2023-01-04T03:25:24;101181.41;;;5.75;100.00
30421;BME280;17218;54.070;10.012;2023-01-04T03:28:09;101187.31;;;5.69;100.00
30421;BME280;17218;54.070;10.012;2023-01-04T03:31:11;101169.25;;;5.68;100.00
30421;BME280;17218;54.070;10.012;2023-01-04T03:33:57;101176.97;;;5.68;100.00
30421;BME280;17218;54.070;10.012;2023-01-04T03:36:54;101164.03;;;5.61;100.00
30421;BME280;17218;54.070;10.012;2023-01-04T03:39:31;101150.31;;;5.63;100.00
30421;BME280;17218;54.070;10.012;2023-01-04T03:42:20;101144.19;;;5.54;100.00
30421;BME280;17218;54.070;10.012;2023-01-04T03:45:12;101136.44;;;5.53;100.00
30421;BME280;17218;54.070;10.012;2023-01-04T03:48:04;101144.91;;;5.48;100.00
30421;BME280;17218;54.070;10.012;2023-01-04T03:50:53;101126.88;;;5.45;100.00
30421;BME280;17218;54.070;10.012;2023-01-04T03:53:24;101140.56;;;5.46;100.00
30421;BME280;17218;54.070;10.012;2023-01-04T03:55:53;101113.97;;;5.44;100.00
30421;BME280;17218;54.070;10.012;2023-01-04T03:58:21;101108.81;;;5.44;100.00
30421;BME280;17218;54.070;10.012;2023-01-04T04:00:48;101099.41;;;5.43;100.00
30421;BME280;17218;54.070;10.012;2023-01-04T04:03:14;101118.25;;;5.43;100.00
30421;BME280;17218;54.070;10.012;2023-01-04T04:05:43;101095.06;;;5.40;100.00
30421;BME280;17218;54.070;10.012;2023-01-04T04:08:29;101089.00;;;5.36;100.00
30421;BME280;17218;54.070;10.012;2023-01-04T04:10:58;101095.06;;;5.40;100.00
30421;BME280;17218;54.070;10.012;2023-01-04T04:13:46;101077.03;;;5.37;100.00
30421;BME280;17218;54.070;10.012;2023-01-04T04:16:14;101065.84;;;5.35;100.00
30421;BME280;17218;54.070;10.012;2023-01-04T04:18:41;101067.56;;;5.34;100.00
30421;BME280;17218;54.070;10.012;2023-01-04T04:21:08;101058.09;;;5.32;100.00
30421;BME280;17218;54.070;10.012;2023-01-04T04:23:36;101053.75;;;5.31;100.00
30421;BME280;17218;54.070;10.012;2023-01-04T04:26:02;101047.75;;;5.29;100.00
30421;BME280;17218;54.070;10.012;2023-01-04T04:28:29;101042.66;;;5.30;100.00
30421;BME280;17218;54.070;10.012;2023-01-04T04:30:55;101041.78;;;5.30;100.00
30421;BME280;17218;54.070;10.012;2023-01-04T04:33:22;101024.63;;;5.29;100.00
30421;BME280;17218;54.070;10.012;2023-01-04T04:35:49;101004.94;;;5.31;100.00
30421;BME280;17218;54.070;10.012;2023-01-04T04:38:16;101018.63;;;5.28;100.00
30421;BME280;17218;54.070;10.012;2023-01-04T04:40:45;101004.84;;;5.24;100.00
30421;BME280;17218;54.070;10.012;2023-01-04T04:43:29;101009.06;;;5.21;100.00
30421;BME280;17218;54.070;10.012;2023-01-04T04:45:55;100992.78;;;5.20;100.00
30421;BME280;17218;54.070;10.012;2023-01-04T04:48:22;100985.84;;;5.16;100.00
30421;BME280;17218;54.070;10.012;2023-01-04T04:50:49;100993.56;;;5.16;100.00
30421;BME280;17218;54.070;10.012;2023-01-04T04:53:15;100991.06;;;5.19;100.00
30421;BME280;17218;54.070;10.012;2023-01-04T04:55:42;100976.50;;;5.20;100.00
30421;BME280;17218;54.070;10.012;2023-01-04T04:58:10;100970.44;;;5.16;100.00
30421;BME280;17218;54.070;10.012;2023-01-04T05:00:39;100972.19;;;5.17;100.00
30421;BME280;17218;54.070;10.012;2023-01-04T05:03:05;100951.63;;;5.16;100.00
30421;BME280;17218;54.070;10.012;2023-01-04T05:05:32;100945.59;;;5.13;100.00
30421;BME280;17218;54.070;10.012;2023-01-04T05:07:58;100937.91;;;5.15;100.00
30421;BME280;17218;54.070;10.012;2023-01-04T05:10:25;100943.06;;;5.17;100.00
30421;BME280;17218;54.070;10.012;2023-01-04T05:12:52;100949.06;;;5.17;100.00
30421;BME280;17218;54.070;10.012;2023-01-04T05:15:29;100932.00;;;5.21;100.00
30421;BME280;17218;54.070;10.012;2023-01-04T05:17:57;100925.19;;;5.21;100.00
30421;BME280;17218;54.070;10.012;2023-01-04T05:20:24;100924.34;;;5.22;100.00
30421;BME280;17218;54.070;10.012;2023-01-04T05:22:50;100904.63;;;5.21;100.00
30421;BME280;17218;54.070;10.012;2023-01-04T05:25:17;100903.72;;;5.18;100.00
30421;BME280;17218;54.070;10.012;2023-01-04T05:27:44;100892.56;;;5.17;100.00
30421;BME280;17218;54.070;10.012;2023-01-04T05:30:12;100884.88;;;5.17;100.00
30421;BME280;17218;54.070;10.012;2023-01-04T05:32:59;100872.09;;;5.22;100.00
30421;BME280;17218;54.070;10.012;2023-01-04T05:35:26;100876.38;;;5.21;100.00
30421;BME280;17218;54.070;10.012;2023-01-04T05:37:53;100864.41;;;5.23;100.00
30421;BME280;17218;54.070;10.012;2023-01-04T05:40:19;100849.88;;;5.25;100.00
30421;BME280;17218;54.070;10.012;2023-01-04T05:42:46;100843.94;;;5.27;100.00
30421;BME280;17218;54.070;10.012;2023-01-04T05:45:14;100850.88;;;5.32;100.00
30421;BME280;17218;54.070;10.012;2023-01-04T05:47:41;100839.75;;;5.33;100.00
30421;BME280;17218;54.070;10.012;2023-01-04T05:50:09;100831.16;;;5.33;100.00
30421;BME280;17218;54.070;10.012;2023-01-04T05:52:36;100837.16;;;5.33;100.00
30421;BME280;17218;54.070;10.012;2023-01-04T05:55:03;100828.66;;;5.36;100.00
30421;BME280;17218;54.070;10.012;2023-01-04T05:57:30;100816.72;;;5.38;100.00
30421;BME280;17218;54.070;10.012;2023-01-04T05:59:57;100816.75;;;5.41;100.00
30421;BME280;17218;54.070;10.012;2023-01-04T06:02:28;100819.34;;;5.44;100.00
30421;BME280;17218;54.070;10.012;2023-01-04T06:04:55;100812.56;;;5.48;100.00
30421;BME280;17218;54.070;10.012;2023-01-04T06:07:23;100798.03;;;5.52;100.00
30421;BME280;17218;54.070;10.012;2023-01-04T06:09:50;100804.94;;;5.54;100.00
30421;BME280;17218;54.070;10.012;2023-01-04T06:12:16;100800.69;;;5.56;100.00
30421;BME280;17218;54.070;10.012;2023-01-04T06:14:43;100787.88;;;5.59;100.00
30421;BME280;17218;54.070;10.012;2023-01-04T06:17:10;100780.19;;;5.59;100.00
30421;BME280;17218;54.070;10.012;2023-01-04T06:19:36;100774.22;;;5.62;100.00
30421;BME280;17218;54.070;10.012;2023-01-04T06:22:03;100779.41;;;5.67;100.00
30421;BME280;17218;54.070;10.012;2023-01-04T06:24:31;100756.28;;;5.67;100.00
30421;BME280;17218;54.070;10.012;2023-01-04T06:26:59;100750.28;;;5.66;100.00
30421;BME280;17218;54.070;10.012;2023-01-04T06:29:25;100759.75;;;5.70;100.00
30421;BME280;17218;54.070;10.012;2023-01-04T06:31:52;100768.38;;;5.74;100.00
30421;BME280;17218;54.070;10.012;2023-01-04T06:34:19;100747.00;;;5.78;100.00
30421;BME280;17218;54.070;10.012;2023-01-04T06:36:45;100740.22;;;5.83;100.00
30421;BME280;17218;54.070;10.012;2023-01-04T06:39:12;100731.69;;;5.88;100.00
30421;BME280;17218;54.070;10.012;2023-01-04T06:41:40;100729.16;;;5.92;100.00
30421;BME280;17218;54.070;10.012;2023-01-04T06:44:06;100716.38;;;5.97;100.00
30421;BME280;17218;54.070;10.012;2023-01-04T06:46:33;100712.97;;;6.00;100.00
30421;BME280;17218;54.070;10.012;2023-01-04T06:49:00;100708.72;;;6.03;100.00
30421;BME280;17218;54.070;10.012;2023-01-04T06:51:26;100717.38;;;6.07;100.00
30421;BME280;17218;54.070;10.012;2023-01-04T06:53:53;100694.28;;;6.12;100.00
30421;BME280;17218;54.070;10.012;2023-01-04T06:56:19;100690.88;;;6.16;100.00
30421;BME280;17218;54.070;10.012;2023-01-04T06:58:47;100700.34;;;6.18;100.00
30421;BME280;17218;54.070;10.012;2023-01-04T07:01:14;100676.38;;;6.21;100.00
30421;BME280;17218;54.070;10.012;2023-01-04T07:03:41;100686.69;;;6.24;100.00
30421;BME280;17218;54.070;10.012;2023-01-04T07:06:07;100674.72;;;6.31;100.00
30421;BME280;17218;54.070;10.012;2023-01-04T07:08:34;100689.34;;;6.32;100.00
30421;BME280;17218;54.070;10.012;2023-01-04T07:11:01;100670.47;;;6.35;100.00
30421;BME280;17218;54.070;10.012;2023-01-04T07:13:28;100664.53;;;6.40;100.00
30421;BME280;17218;54.070;10.012;2023-01-04T07:15:56;100663.72;;;6.48;100.00
30421;BME280;17218;54.070;10.012;2023-01-04T07:18:22;100665.41;;;6.44;100.00
30421;BME280;17218;54.070;10.012;2023-01-04T07:20:49;100656.06;;;6.51;100.00
30421;BME280;17218;54.070;10.012;2023-01-04T07:23:15;100654.38;;;6.58;100.00
30421;BME280;17218;54.070;10.012;2023-01-04T07:25:42;100644.97;;;6.58;100.00
30421;BME280;17218;54.070;10.012;2023-01-04T07:28:09;100642.41;;;6.60;100.00
30421;BME280;17218;54.070;10.012;2023-01-04T07:30:35;100648.44;;;6.65;100.00
30421;BME280;17218;54.070;10.012;2023-01-04T07:33:03;100646.75;;;6.68;100.00
30421;BME280;17218;54.070;10.012;2023-01-04T07:35:33;100633.03;;;6.73;100.00
30421;BME280;17218;54.070;10.012;2023-01-04T07:37:59;100634.81;;;6.78;100.00
30421;BME280;17218;54.070;10.012;2023-01-04T07:40:26;100646.00;;;6.82;100.00
30421;BME280;17218;54.070;10.012;2023-01-04T07:42:54;100637.44;;;6.88;100.00
30421;BME280;17218;54.070;10.012;2023-01-04T07:45:22;100614.28;;;6.91;100.00
30421;BME280;17218;54.070;10.012;2023-01-04T07:47:48;100610.84;;;6.94;100.00
30421;BME280;17218;54.070;10.012;2023-01-04T07:50:16;100622.06;;;7.00;100.00
30421;BME280;17218;54.070;10.012;2023-01-04T07:52:43;100615.22;;;7.04;100.00
30421;BME280;17218;54.070;10.012;2023-01-04T07:55:10;100613.50;;;7.09;100.00
30421;BME280;17218;54.070;10.012;2023-01-04T07:57:36;100622.13;;;7.14;100.00
30421;BME280;17218;54.070;10.012;2023-01-04T08:00:03;100625.56;;;7.18;100.00
30421;BME280;17218;54.070;10.012;2023-01-04T08:02:30;100625.63;;;7.24;100.00
30421;BME280;17218;54.070;10.012;2023-01-04T08:04:57;100624.75;;;7.27;100.00
30421;BME280;17218;54.070;10.012;2023-01-04T08:07:25;100617.06;;;7.30;100.00
30421;BME280;17218;54.070;10.012;2023-01-04T08:09:52;100611.03;;;7.34;100.00
30421;BME280;17218;54.070;10.012;2023-01-04T08:12:18;100624.81;;;7.41;100.00
30421;BME280;17218;54.070;10.012;2023-01-04T08:14:45;100632.56;;;7.47;100.00
30421;BME280;17218;54.070;10.012;2023-01-04T08:17:11;100613.69;;;7.48;100.00
30421;BME280;17218;54.070;10.012;2023-01-04T08:19:38;100632.59;;;7.55;100.00
30421;BME280;17218;54.070;10.012;2023-01-04T08:22:05;100626.59;;;7.59;100.00
30421;BME280;17218;54.070;10.012;2023-01-04T08:24:33;100615.44;;;7.65;100.00
30421;BME280;17218;54.070;10.012;2023-01-04T08:26:59;100621.47;;;7.69;100.00
30421;BME280;17218;54.070;10.012;2023-01-04T08:29:26;100625.81;;;7.74;100.00
30421;BME280;17218;54.070;10.012;2023-01-04T08:31:53;100628.38;;;7.74;100.00
30421;BME280;17218;54.070;10.012;2023-01-04T08:34:19;100624.09;;;7.81;100.00
30421;BME280;17218;54.070;10.012;2023-01-04T08:36:48;100614.63;;;7.85;100.00
30421;BME280;17218;54.070;10.012;2023-01-04T08:39:15;100605.19;;;7.90;100.00
30421;BME280;17218;54.070;10.012;2023-01-04T08:41:43;100620.69;;;7.93;100.00
30421;BME280;17218;54.070;10.012;2023-01-04T08:44:16;100612.94;;;7.96;100.00
30421;BME280;17218;54.070;10.012;2023-01-04T08:46:43;100608.66;;;8.02;100.00
30421;BME280;17218;54.070;10.012;2023-01-04T08:49:09;100594.03;;;8.02;100.00
30421;BME280;17218;54.070;10.012;2023-01-04T08:51:36;100602.63;;;8.06;100.00
30421;BME280;17218;54.070;10.012;2023-01-04T08:54:03;100592.31;;;8.06;100.00
30421;BME280;17218;54.070;10.012;2023-01-04T08:56:30;100592.31;;;8.12;100.00
30421;BME280;17218;54.070;10.012;2023-01-04T08:58:58;100587.16;;;8.14;100.00
30421;BME280;17218;54.070;10.012;2023-01-04T09:01:24;100587.16;;;8.17;100.00
30421;BME280;17218;54.070;10.012;2023-01-04T09:03:51;100581.13;;;8.19;100.00
30421;BME280;17218;54.070;10.012;2023-01-04T09:06:20;100575.97;;;8.22;100.00
30421;BME280;17218;54.070;10.012;2023-01-04T09:08:47;100578.53;;;8.30;100.00
30421;BME280;17218;54.070;10.012;2023-01-04T09:11:15;100575.97;;;8.30;100.00
30421;BME280;17218;54.070;10.012;2023-01-04T09:13:43;100571.69;;;8.34;100.00
30421;BME280;17218;54.070;10.012;2023-01-04T09:16:12;100571.66;;;8.37;100.00
30421;BME280;17218;54.070;10.012;2023-01-04T09:18:40;100573.38;;;8.38;100.00
30421;BME280;17218;54.070;10.012;2023-01-04T09:21:07;100566.50;;;8.40;100.00
30421;BME280;17218;54.070;10.012;2023-01-04T09:23:34;100567.34;;;8.44;100.00
30421;BME280;17218;54.070;10.012;2023-01-04T09:26:04;100575.94;;;8.49;100.00
30421;BME280;17218;54.070;10.012;2023-01-04T09:28:31;100567.34;;;8.52;100.00
30421;BME280;17218;54.070;10.012;2023-01-04T09:30:57;100569.91;;;8.53;100.00
30421;BME280;17218;54.070;10.012;2023-01-04T09:33:26;100572.53;;;8.58;100.00
30421;BME280;17218;54.070;10.012;2023-01-04T09:35:52;100566.47;;;8.64;100.00
30421;BME280;17218;54.070;10.012;2023-01-04T09:38:19;100574.25;;;8.67;100.00
30421;BME280;17218;54.070;10.012;2023-01-04T09:40:53;100557.88;;;8.68;100.00
30421;BME280;17218;54.070;10.012;2023-01-04T09:43:22;100560.47;;;8.74;100.00
30421;BME280;17218;54.070;10.012;2023-01-04T09:45:52;100554.41;;;8.75;100.00
30421;BME280;17218;54.070;10.012;2023-01-04T09:48:27;100547.53;;;8.76;100.00
30421;BME280;17218;54.070;10.012;2023-01-04T09:50:56;100551.81;;;8.83;100.00
30421;BME280;17218;54.070;10.012;2023-01-04T09:53:27;100552.66;;;8.90;100.00
30421;BME280;17218;54.070;10.012;2023-01-04T09:56:01;100545.75;;;8.90;100.00
30421;BME280;17218;54.070;10.012;2023-01-04T09:58:35;100547.47;;;8.96;100.00
30421;BME280;17218;54.070;10.012;2023-01-04T10:01:04;100543.13;;;9.03;100.00
30421;BME280;17218;54.070;10.012;2023-01-04T10:03:35;100534.53;;;9.02;100.00
30421;BME280;17218;54.070;10.012;2023-01-04T10:06:05;100545.69;;;9.04;100.00
30421;BME280;17218;54.070;10.012;2023-01-04T10:08:33;100535.34;;;9.09;100.00
30421;BME280;17218;54.070;10.012;2023-01-04T10:11:09;100537.97;;;9.07;100.00
30421;BME280;17218;54.070;10.012;2023-01-04T10:13:50;100546.56;;;9.11;100.00
30421;BME280;17218;54.070;10.012;2023-01-04T10:16:24;100538.78;;;9.13;100.00
30421;BME280;17218;54.070;10.012;2023-01-04T10:19:08;100529.28;;;9.18;100.00
30421;BME280;17218;54.070;10.012;2023-01-04T10:21:42;100536.16;;;9.19;100.00
30421;BME280;17218;54.070;10.012;2023-01-04T10:24:30;100526.66;;;9.21;100.00
30421;BME280;17218;54.070;10.012;2023-01-04T10:27:03;100517.19;;;9.23;100.00
30421;BME280;17218;54.070;10.012;2023-01-04T10:29:44;100519.75;;;9.28;100.00
30421;BME280;17218;54.070;10.012;2023-01-04T10:32:17;100523.19;;;9.32;100.00
30421;BME280;17218;54.070;10.012;2023-01-04T10:34:46;100517.13;;;9.33;100.00
30421;BME280;17218;54.070;10.012;2023-01-04T10:37:16;100521.44;;;9.32;100.00
30421;BME280;17218;54.070;10.012;2023-01-04T10:39:49;100537.81;;;9.33;100.00
30421;BME280;17218;54.070;10.012;2023-01-04T10:42:19;100515.41;;;9.36;100.00
30421;BME280;17218;54.070;10.012;2023-01-04T10:45:07;100506.78;;;9.39;100.00
30421;BME280;17218;54.070;10.012;2023-01-04T10:47:48;100511.06;;;9.40;100.00
30421;BME280;17218;54.070;10.012;2023-01-04T10:50:23;100506.72;;;9.45;100.00
30421;BME280;17218;54.070;10.012;2023-01-04T10:52:53;100497.28;;;9.42;100.00
30421;BME280;17218;54.070;10.012;2023-01-04T10:55:25;100491.22;;;9.47;100.00
30421;BME280;17218;54.070;10.012;2023-01-04T10:57:57;100494.63;;;9.52;100.00
30421;BME280;17218;54.070;10.012;2023-01-04T11:00:27;100491.19;;;9.50;100.00
30421;BME280;17218;54.070;10.012;2023-01-04T11:02:59;100472.19;;;9.56;100.00
30421;BME280;17218;54.070;10.012;2023-01-04T11:05:33;100478.19;;;9.56;100.00
30421;BME280;17218;54.070;10.012;2023-01-04T11:08:09;100473.88;;;9.58;100.00
30421;BME280;17218;54.070;10.012;2023-01-04T11:10:41;100462.69;;;9.59;100.00
30421;BME280;17218;54.070;10.012;2023-01-04T11:13:11;100454.94;;;9.59;100.00
30421;BME280;17218;54.070;10.012;2023-01-04T11:15:38;100464.34;;;9.66;100.00
30421;BME280;17218;54.070;10.012;2023-01-04T11:18:07;100461.75;;;9.68;100.00
30421;BME280;17218;54.070;10.012;2023-01-04T11:20:37;100462.63;;;9.64;100.00
30421;BME280;17218;54.070;10.012;2023-01-04T11:23:06;100454.03;;;9.65;100.00
30421;BME280;17218;54.070;10.012;2023-01-04T11:25:37;100454.03;;;9.62;100.00
30421;BME280;17218;54.070;10.012;2023-01-04T11:28:13;100454.88;;;9.64;100.00
30421;BME280;17218;54.070;10.012;2023-01-04T11:30:49;100447.91;;;9.74;100.00
30421;BME280;17218;54.070;10.012;2023-01-04T11:33:18;100453.88;;;9.84;100.00
30421;BME280;17218;54.070;10.012;2023-01-04T11:35:49;100434.91;;;9.83;100.00
30421;BME280;17218;54.070;10.012;2023-01-04T11:38:17;100424.50;;;9.86;100.00
30421;BME280;17218;54.070;10.012;2023-01-04T11:40:54;100423.63;;;9.86;100.00
30421;BME280;17218;54.070;10.012;2023-01-04T11:43:22;100430.56;;;9.85;100.00
30421;BME280;17218;54.070;10.012;2023-01-04T11:45:59;100430.56;;;9.87;100.00
30421;BME280;17218;54.070;10.012;2023-01-04T11:48:38;100408.97;;;9.91;100.00
30421;BME280;17218;54.070;10.012;2023-01-04T11:51:16;100425.34;;;9.90;100.00
30421;BME280;17218;54.070;10.012;2023-01-04T11:53:43;100413.19;;;9.97;100.00
30421;BME280;17218;54.070;10.012;2023-01-04T11:56:20;100406.34;;;9.93;100.00
30421;BME280;17218;54.070;10.012;2023-01-04T11:59:09;100412.34;;;9.98;100.00
30421;BME280;17218;54.070;10.012;2023-01-04T12:01:38;100404.50;;;10.02;100.00
30421;BME280;17218;54.070;10.012;2023-01-04T12:04:10;100394.25;;;9.96;100.00
30421;BME280;17218;54.070;10.012;2023-01-04T12:06:41;100403.69;;;9.97;100.00
30421;BME280;17218;54.070;10.012;2023-01-04T12:09:12;100408.84;;;9.99;100.00
30421;BME280;17218;54.070;10.012;2023-01-04T12:11:42;100406.22;;;10.05;100.00
30421;BME280;17218;54.070;10.012;2023-01-04T12:14:17;100406.25;;;10.04;100.00
30421;BME280;17218;54.070;10.012;2023-01-04T12:16:50;100383.81;;;10.02;100.00
30421;BME280;17218;54.070;10.012;2023-01-04T12:19:20;100388.22;;;9.94;100.00
30421;BME280;17218;54.070;10.012;2023-01-04T12:21:50;100388.22;;;9.94;100.00
30421;BME280;17218;54.070;10.012;2023-01-04T12:24:20;100408.84;;;9.99;100.00
30421;BME280;17218;54.070;10.012;2023-01-04T12:26:48;100376.06;;;10.01;100.00
30421;BME280;17218;54.070;10.012;2023-01-04T12:29:42;100384.66;;;10.03;100.00
30421;BME280;17218;54.070;10.012;2023-01-04T12:38:56;100394.16;;;10.02;100.00
30421;BME280;17218;54.070;10.012;2023-01-04T12:45:14;100405.25;;;10.14;100.00
30421;BME280;17218;54.070;10.012;2023-01-04T12:47:43;100406.13;;;10.14;100.00
30421;BME280;17218;54.070;10.012;2023-01-04T12:50:27;100397.50;;;10.14;100.00
30421;BME280;17218;54.070;10.012;2023-01-04T12:52:58;100395.69;;;10.19;100.00
30421;BME280;17218;54.070;10.012;2023-01-04T12:55:56;100406.00;;;10.25;100.00
30421;BME280;17218;54.070;10.012;2023-01-04T13:01:35;100399.81;;;10.36;100.00
30421;BME280;17218;54.070;10.012;2023-01-04T13:04:27;100399.91;;;10.31;100.00
30421;BME280;17218;54.070;10.012;2023-01-04T13:07:00;100395.59;;;10.32;100.00
30421;BME280;17218;54.070;10.012;2023-01-04T13:09:40;100380.06;;;10.29;100.00
30421;BME280;17218;54.070;10.012;2023-01-04T13:12:45;100385.16;;;10.36;100.00
30421;BME280;17218;54.070;10.012;2023-01-04T13:15:21;100390.22;;;10.49;100.00